Time;durP1;ratioP1;P1;durP2;ratioP2;P2;SDS_P1;SDS_P2;PMS_P1;PMS_P2;Temp;Humidity;BMP_temperature;BMP_pressure;BME280_temperature;BME280_humidity;BME280_pressure;Samples;Min_cycle;Max_cycle;Signal;HPM_P1;HPM_P2
2021/11/08 00:01:13;;;;;;;1.83;1.75;;;;;;;6.71;77.66;99064.66;6332062;22;20109;-72
2021/11/08 00:03:43;;;;;;;2.92;2.72;;;;;;;6.75;77.39;99058.41;6330891;22;20636;-72
2021/11/08 00:06:10;;;;;;;1.88;1.88;;;;;;;6.65;78.18;99049.44;6331270;22;20022;-73
2021/11/08 00:08:38;;;;;;;2.15;2.05;;;;;;;6.66;77.58;99052.88;6333714;22;20022;-73
2021/11/08 00:11:04;;;;;;;8.40;3.60;;;;;;;6.63;78.22;99047.84;6332646;22;20025;-72
2021/11/08 00:13:31;;;;;;;6.82;3.83;;;;;;;6.61;77.97;99047.91;6331155;22;20030;-73
2021/11/08 00:18:47;;;;;;;2.78;2.58;;;;;;;6.68;76.80;99027.69;6331621;22;20449;-72
2021/11/08 00:21:12;;;;;;;3.47;3.17;;;;;;;6.72;76.73;99039.56;6331750;22;20037;-72
2021/11/08 00:23:39;;;;;;;2.40;2.28;;;;;;;6.61;77.88;99036.72;6304506;22;20505;-73
2021/11/08 00:26:05;;;;;;;1.52;1.42;;;;;;;6.51;77.83;99019.97;6332408;22;20591;-73
2021/11/08 00:28:31;;;;;;;3.75;3.45;;;;;;;6.62;77.21;99028.84;6330459;22;20023;-73
2021/11/08 00:30:57;;;;;;;3.25;3.00;;;;;;;6.62;76.74;99013.28;6333751;22;20022;-73
2021/11/08 00:33:23;;;;;;;5.13;3.70;;;;;;;6.62;76.86;99017.63;6334962;22;20111;-73
2021/11/08 00:35:51;;;;;;;1.58;1.55;;;;;;;6.59;76.64;99008.28;6332455;22;20030;-72
2021/11/08 00:38:17;;;;;;;3.28;3.00;;;;;;;6.59;76.73;98999.66;6333115;22;20026;-73
2021/11/08 00:40:44;;;;;;;4.03;3.72;;;;;;;6.60;76.73;99014.28;6330746;22;20019;-73
2021/11/08 00:43:10;;;;;;;1.98;1.88;;;;;;;6.58;76.35;99005.75;6330700;22;20027;-72
2021/11/08 00:45:36;;;;;;;2.78;2.63;;;;;;;6.61;76.50;99010.78;6331965;22;20014;-73
2021/11/08 00:48:02;;;;;;;4.93;2.47;;;;;;;6.56;76.79;99003.25;6330477;22;20027;-70
2021/11/08 00:50:29;;;;;;;5.88;3.05;;;;;;;6.60;76.27;99004.78;6330016;22;20021;-71
2021/11/08 00:52:55;;;;;;;2.42;2.30;;;;;;;6.66;76.03;98995.81;6332150;22;20018;-71
2021/11/08 00:55:23;;;;;;;3.55;3.25;;;;;;;6.60;76.41;98990.97;6331502;22;20072;-73
2021/11/08 00:57:50;;;;;;;2.50;2.30;;;;;;;6.56;76.54;98992.03;6330269;22;20026;-71
2021/11/08 01:00:18;;;;;;;2.30;2.20;;;;;;;6.61;76.18;98990.06;6330198;22;20474;-70
2021/11/08 01:02:44;;;;;;;1.65;1.55;;;;;;;6.60;76.14;98978.84;6304609;22;20049;-71
2021/11/08 01:05:11;;;;;;;2.03;1.92;;;;;;;6.64;75.59;98979.50;6330235;22;20113;-71
2021/11/08 01:07:37;;;;;;;2.30;2.20;;;;;;;6.62;76.29;98970.97;6331774;22;20072;-71
2021/11/08 01:10:05;;;;;;;4.55;3.20;;;;;;;6.58;76.46;98974.63;6330872;22;20018;-71
2021/11/08 01:12:31;;;;;;;3.28;3.08;;;;;;;6.56;76.00;98963.50;6304936;22;20374;-70
2021/11/08 01:14:57;;;;;;;1.40;1.40;;;;;;;6.57;76.08;98975.56;6332860;22;20018;-71
2021/11/08 01:17:23;;;;;;;2.58;2.47;;;;;;;6.58;76.24;98972.03;6329644;22;20037;-71
2021/11/08 01:19:49;;;;;;;1.88;1.80;;;;;;;6.66;75.59;98978.50;6331811;22;20019;-71
2021/11/08 01:22:17;;;;;;;1.80;1.77;;;;;;;6.58;76.38;98972.03;6331538;22;20026;-70
2021/11/08 01:24:52;;;;;;;2.80;2.65;;;;;;;6.66;75.63;98975.06;6331542;22;20018;-71
2021/11/08 01:27:43;;;;;;;2.60;2.50;;;;;;;6.62;76.02;98963.19;6331544;22;20042;-71
2021/11/08 01:30:15;;;;;;;2.65;1.92;;;;;;;6.59;76.04;98955.56;6332025;22;20454;-71
2021/11/08 01:32:51;;;;;;;2.83;2.63;;;;;;;6.61;76.04;98948.56;6333523;22;20450;-70
2021/11/08 01:35:17;;;;;;;2.78;2.58;;;;;;;6.58;76.13;98931.38;6333015;22;20515;-71
2021/11/08 01:37:50;;;;;;;3.72;3.42;;;;;;;6.53;76.42;98935.16;6333448;22;20546;-71
2021/11/08 01:40:16;;;;;;;4.75;3.50;;;;;;;6.60;75.82;98936.50;6333696;22;20015;-72
2021/11/08 01:42:42;;;;;;;2.47;2.38;;;;;;;6.59;76.19;98932.22;6333929;22;20449;-70
2021/11/08 01:45:09;;;;;;;2.40;2.25;;;;;;;6.52;76.83;98934.31;6331671;22;20092;-71
2021/11/08 01:47:35;;;;;;;2.50;2.30;;;;;;;6.52;76.85;98929.13;6333870;22;20102;-71
2021/11/08 01:50:00;;;;;;;3.63;3.42;;;;;;;6.51;76.55;98916.25;6333666;22;20026;-71
2021/11/08 01:52:27;;;;;;;3.00;2.80;;;;;;;6.52;76.61;98920.50;6333124;22;20476;-72
2021/11/08 01:54:53;;;;;;;2.85;2.65;;;;;;;6.51;76.63;98926.63;6333424;22;20019;-71
2021/11/08 01:57:19;;;;;;;3.33;3.13;;;;;;;6.52;76.75;98928.28;6333367;22;20019;-71
2021/11/08 01:59:45;;;;;;;3.10;2.90;;;;;;;6.54;76.41;98918.69;6333122;22;20093;-70
2021/11/08 02:02:11;;;;;;;3.03;2.72;;;;;;;6.45;76.70;98906.19;6331763;22;20104;-70
2021/11/08 02:04:37;;;;;;;3.33;3.03;;;;;;;6.44;76.32;98892.44;6332715;22;20015;-71
2021/11/08 02:07:03;;;;;;;4.00;3.70;;;;;;;6.49;76.37;98903.38;6331623;22;20014;-71
2021/11/08 02:09:29;;;;;;;3.53;3.22;;;;;;;6.50;76.17;98904.22;6331158;22;20105;-71
2021/11/08 02:11:56;;;;;;;3.92;3.63;;;;;;;6.51;76.26;98908.50;6332975;22;20014;-72
2021/11/08 02:14:22;;;;;;;3.70;3.38;;;;;;;6.49;76.53;98898.19;6305498;22;20347;-72
2021/11/08 02:16:48;;;;;;;3.05;2.75;;;;;;;6.50;76.53;98914.59;6332982;22;20465;-71
2021/11/08 02:19:14;;;;;;;2.95;2.75;;;;;;;6.51;76.32;98911.09;6333167;22;20065;-69
2021/11/08 02:21:40;;;;;;;2.92;2.72;;;;;;;6.51;76.64;98890.34;6332742;22;20366;-72
2021/11/08 02:24:12;;;;;;;4.35;3.67;;;;;;;6.51;76.32;98890.34;6332966;22;20498;-73
2021/11/08 02:26:38;;;;;;;3.28;3.08;;;;;;;6.48;76.81;98885.31;6332480;22;20482;-70
2021/11/08 02:29:05;;;;;;;6.30;1.45;;;;;;;6.47;77.39;98896.59;6333223;22;20015;-72
2021/11/08 02:31:33;;;;;;;5.63;4.57;;;;;;;6.43;77.15;98875.19;6332402;22;20093;-71
2021/11/08 02:34:00;;;;;;;2.97;2.78;;;;;;;6.43;77.11;98871.75;6333226;22;20015;-71
2021/11/08 02:36:25;;;;;;;2.55;2.40;;;;;;;6.48;76.60;98880.13;6332532;22;20022;-70
2021/11/08 02:38:54;;;;;;;3.38;2.70;;;;;;;6.46;77.01;98871.59;6331352;22;20022;-72
2021/11/08 02:41:20;;;;;;;3.40;3.20;;;;;;;6.44;76.96;98881.22;6332317;22;20046;-71
2021/11/08 02:43:47;;;;;;;2.50;2.25;;;;;;;6.48;76.59;98877.53;6332953;22;20018;-73
2021/11/08 02:46:19;;;;;;;2.47;2.38;;;;;;;6.45;76.94;98880.28;6331436;22;20049;-73
2021/11/08 02:48:46;;;;;;;4.28;3.97;;;;;;;6.48;77.03;98869.78;6331418;22;20098;-72
2021/11/08 02:53:40;;;;;;;3.60;3.40;;;;;;;6.46;76.93;98871.59;6332520;22;20262;-71
2021/11/08 02:56:07;;;;;;;2.78;2.58;;;;;;;6.49;76.62;98868.84;6333087;22;20362;-72
2021/11/08 02:58:34;;;;;;;2.53;2.42;;;;;;;6.41;77.08;98852.88;6332249;22;20022;-72
2021/11/08 03:01:00;;;;;;;2.30;2.20;;;;;;;6.37;77.02;98846.16;6304777;22;20697;-71
2021/11/08 03:03:35;;;;;;;2.70;2.50;;;;;;;6.43;77.07;98857.03;6332562;22;20105;-72
2021/11/08 03:06:24;;;;;;;2.78;2.58;;;;;;;6.41;77.67;98863.25;6331334;22;20019;-71
2021/11/08 03:08:54;;;;;;;4.40;4.05;;;;;;;6.43;77.51;98845.84;6331417;22;20117;-72
2021/11/08 03:11:22;;;;;;;8.38;3.85;;;;;;;6.43;77.53;98853.63;6332764;22;20027;-72
2021/11/08 03:14:08;;;;;;;2.33;2.22;;;;;;;6.40;77.62;98846.00;6332589;22;20026;-72
2021/11/08 03:16:49;;;;;;;2.38;2.28;;;;;;;6.39;78.02;98859.88;6308705;22;20018;-72
2021/11/08 03:19:36;;;;;;;;;;;;;;;6.41;77.37;98842.50;6333483;22;20060;-69
2021/11/08 03:22:15;;;;;;;2.80;2.63;;;;;;;6.36;78.17;98832.38;6332662;22;19914;-71
2021/11/08 03:24:46;;;;;;;3.10;2.90;;;;;;;6.40;77.78;98841.66;6305707;22;20111;-70
2021/11/08 03:27:27;;;;;;;2.20;2.10;;;;;;;6.41;77.19;98842.50;6332648;22;20019;-71
2021/11/08 03:29:53;;;;;;;5.43;4.38;;;;;;;6.39;77.34;98839.13;6332454;22;20302;-70
2021/11/08 03:32:20;;;;;;;3.47;3.17;;;;;;;6.41;77.50;98847.69;6330600;22;20018;-71
2021/11/08 03:34:52;;;;;;;2.72;2.53;;;;;;;6.30;78.05;98827.53;6332005;22;20109;-70
2021/11/08 03:37:18;;;;;;;1.50;1.50;;;;;;;6.36;77.96;98818.56;6331193;22;20015;-72
2021/11/08 03:39:45;;;;;;;3.00;2.80;;;;;;;6.42;77.51;98829.44;6330563;22;20406;-71
2021/11/08 03:42:11;;;;;;;3.92;3.55;;;;;;;6.37;77.95;98823.69;6332459;22;20459;-70
2021/11/08 03:44:38;;;;;;;2.45;2.35;;;;;;;6.40;77.66;98833.03;6330359;22;20095;-72
2021/11/08 03:47:04;;;;;;;3.20;3.00;;;;;;;6.41;77.88;98842.50;6330566;22;20014;-69
2021/11/08 03:49:30;;;;;;;3.05;2.85;;;;;;;6.38;77.76;98827.13;6330270;22;20019;-70
2021/11/08 03:51:56;;;;;;;2.22;2.03;;;;;;;6.35;78.16;98822.91;6329736;22;20090;-71
2021/11/08 03:54:22;;;;;;;3.35;2.78;;;;;;;6.38;77.85;98821.94;6304487;22;20492;-70
2021/11/08 03:56:48;;;;;;;2.00;1.90;;;;;;;6.35;78.06;98806.56;6331771;22;20026;-71
2021/11/08 03:59:14;;;;;;;3.50;3.20;;;;;;;6.35;77.96;98812.53;6332501;22;20018;-70
2021/11/08 04:01:40;;;;;;;2.15;2.05;;;;;;;6.36;77.94;98808.22;6330000;22;20370;-73
2021/11/08 04:04:06;;;;;;;3.30;3.05;;;;;;;6.29;77.99;98803.34;6330890;22;20030;-71
2021/11/08 04:06:34;;;;;;;2.80;2.63;;;;;;;6.32;78.10;98801.50;6331628;22;20073;-72
2021/11/08 04:09:00;;;;;;;3.78;3.28;;;;;;;6.31;78.30;98811.06;6332263;22;20014;-72
2021/11/08 04:11:27;;;;;;;4.30;4.00;;;;;;;6.31;78.41;98799.84;6331404;22;20015;-73
2021/11/08 04:13:57;;;;;;;3.53;2.25;;;;;;;6.32;78.58;98811.88;6332556;22;20018;-72
2021/11/08 04:16:25;;;;;;;2.10;2.00;;;;;;;6.32;78.27;98802.34;6329615;22;20382;-71
2021/11/08 04:18:52;;;;;;;10.32;3.88;;;;;;;6.33;78.15;98803.19;6329938;22;20018;-71
2021/11/08 04:21:19;;;;;;;3.55;3.25;;;;;;;6.29;78.50;98800.75;6331819;22;20018;-71
2021/11/08 04:23:45;;;;;;;4.10;3.80;;;;;;;6.31;78.26;98800.69;6331479;22;20019;-71
2021/11/08 04:26:13;;;;;;;3.85;2.92;;;;;;;6.29;79.01;98795.59;6331678;22;20025;-71
2021/11/08 04:28:39;;;;;;;2.70;2.60;;;;;;;6.31;78.26;98794.69;6327384;22;20080;-70
2021/11/08 04:31:05;;;;;;;3.47;3.17;;;;;;;6.33;78.41;98798.00;6329522;22;20025;-71
2021/11/08 04:33:41;;;;;;;2.90;2.72;;;;;;;6.23;79.11;98790.75;6328465;22;20094;-71
2021/11/08 04:38:51;;;;;;;2.83;2.63;;;;;;;6.23;79.11;98785.56;6329597;22;20073;-73
2021/11/08 04:44:03;;;;;;;8.38;2.58;;;;;;;6.16;80.16;98773.84;6330721;22;20351;-72
2021/11/08 04:49:12;;;;;;;3.55;3.35;;;;;;;6.13;80.31;98780.94;6332708;22;20042;-73
2021/11/08 04:52:05;;;;;;;2.17;2.08;;;;;;;6.03;80.36;98759.88;6324658;22;20089;-72
2021/11/08 05:27:53;;;;;;;4.03;3.63;;;;;;;6.16;80.14;98752.28;6325405;22;20525;-73
2021/11/08 05:30:07;;;;;;;3.53;3.30;;;;;;;6.17;80.29;98751.38;6324258;22;20424;-74
2021/11/08 05:32:38;;;;;;;5.07;3.20;;;;;;;6.12;80.45;98732.63;6298622;22;20083;-74
2021/11/08 05:35:05;;;;;;;;;;;;;;;6.13;81.01;98742.94;6326046;22;20397;-71
2021/11/08 05:37:32;;;;;;;2.65;2.45;;;;;;;6.07;81.08;98735.50;6325852;22;19918;-73
2021/11/08 05:40:08;;;;;;;6.13;5.53;;;;;;;6.11;81.20;98737.00;6327378;22;20019;-73
2021/11/08 05:42:35;;;;;;;3.72;3.50;;;;;;;6.04;81.95;98740.84;6328505;22;20044;-74
2021/11/08 05:45:00;;;;;;;4.03;3.72;;;;;;;6.02;82.56;98737.47;6329556;22;20030;-77
2021/11/08 05:47:28;;;;;;;3.00;2.80;;;;;;;6.00;82.10;98730.72;6329295;22;20507;-73
2021/11/08 05:49:55;;;;;;;4.15;3.85;;;;;;;6.00;82.26;98734.16;6329196;22;20015;-74
2021/11/08 05:52:20;;;;;;;5.45;4.07;;;;;;;6.03;82.31;98730.56;6329839;22;20046;-73
2021/11/08 05:54:47;;;;;;;5.63;4.30;;;;;;;6.00;82.74;98730.72;6327095;22;20022;-75
2021/11/08 05:57:42;;;;;;;2.22;2.13;;;;;;;5.99;83.16;98737.66;6275697;22;20029;-75
2021/11/08 06:00:48;;;;;;;3.05;2.85;;;;;;;5.91;84.02;98713.94;6285963;22;20015;-75
2021/11/08 06:49:44;;;;;;;6.30;5.30;;;;;;;5.78;87.10;98707.72;6332463;22;20022;-72
2021/11/08 06:52:13;;;;;;;5.03;4.70;;;;;;;5.79;87.21;98706.81;6330788;22;20681;-73
2021/11/08 06:54:42;;;;;;;3.92;3.67;;;;;;;5.76;87.33;98712.13;6330606;22;20007;-73
2021/11/08 06:57:14;;;;;;;4.43;3.83;;;;;;;5.71;87.68;98706.38;6330911;22;20022;-72
2021/11/08 06:59:40;;;;;;;;;;;;;;;5.70;88.18;98700.34;6331483;22;20025;-73
2021/11/08 07:02:06;;;;;;;3.92;3.63;;;;;;;5.66;88.90;98705.81;6331379;22;19914;-74
2021/11/08 07:04:32;;;;;;;3.83;2.92;;;;;;;5.65;89.39;98698.94;6331341;22;20010;-74
2021/11/08 07:07:05;;;;;;;7.05;4.88;;;;;;;5.62;89.50;98701.69;6331066;22;20022;-74
2021/11/08 07:09:32;;;;;;;5.93;4.68;;;;;;;5.57;89.66;98704.50;6332864;22;20492;-72
2021/11/08 07:11:57;;;;;;;4.25;3.78;;;;;;;5.59;90.36;98704.44;6330583;22;20018;-72
2021/11/08 07:14:24;;;;;;;6.13;5.57;;;;;;;5.59;89.74;98702.69;6332688;22;20026;-71
2021/11/08 07:16:50;;;;;;;4.82;4.35;;;;;;;5.59;89.96;98692.34;6332123;22;20027;-73
2021/11/08 07:19:16;;;;;;;6.40;5.75;;;;;;;5.60;90.42;98706.09;6333202;22;20457;-71
2021/11/08 07:21:42;;;;;;;5.28;4.80;;;;;;;5.56;90.47;98696.84;6332775;22;20018;-71
2021/11/08 07:24:08;;;;;;;11.77;6.35;;;;;;;5.58;90.45;98695.00;6305538;22;20018;-71
2021/11/08 07:26:35;;;;;;;7.20;6.10;;;;;;;5.63;89.65;98698.16;6305265;22;20014;-74
2021/11/08 07:29:01;;;;;;;4.00;3.70;;;;;;;5.64;89.50;98707.63;6330999;22;20018;-72
2021/11/08 07:31:27;;;;;;;4.55;4.25;;;;;;;5.58;90.83;98693.25;6332470;22;20107;-73
2021/11/08 07:33:53;;;;;;;2.10;2.00;;;;;;;5.59;90.80;98691.50;6330962;22;20019;-72
2021/11/08 07:36:19;;;;;;;4.97;4.07;;;;;;;5.62;90.00;98694.78;6332080;22;20023;-72
2021/11/08 07:38:45;;;;;;;3.08;2.88;;;;;;;5.64;89.89;98699.84;6304678;22;20500;-72
2021/11/08 07:41:12;;;;;;;2.85;2.65;;;;;;;5.64;91.38;98700.69;6332653;22;20072;-72
2021/11/08 07:43:41;;;;;;;4.53;4.13;;;;;;;5.60;91.41;98686.22;6330695;22;20068;-72
2021/11/08 07:46:07;;;;;;;2.67;2.58;;;;;;;5.64;91.57;98689.50;6332232;22;20623;-72
2021/11/08 07:48:39;;;;;;;3.05;2.45;;;;;;;5.68;90.75;98691.00;6332502;22;20042;-72
2021/11/08 07:51:06;;;;;;;4.28;2.55;;;;;;;5.66;91.30;98696.25;6332408;22;20014;-73
2021/11/08 07:53:32;;;;;;;5.57;4.35;;;;;;;5.67;91.55;98689.31;6332215;22;20063;-72
2021/11/08 07:55:58;;;;;;;5.05;4.65;;;;;;;5.66;91.11;98679.91;6330318;22;20019;-71
2021/11/08 07:58:24;;;;;;;9.27;7.00;;;;;;;5.67;91.15;98671.22;6330660;22;20050;-71
2021/11/08 08:00:50;;;;;;;3.92;3.63;;;;;;;5.65;91.50;98680.81;6331911;22;20101;-73
2021/11/08 08:03:16;;;;;;;5.13;4.13;;;;;;;5.64;91.21;98671.38;6278809;22;20077;-72
2021/11/08 08:05:42;;;;;;;7.55;6.07;;;;;;;5.64;91.36;98674.81;6330356;22;20060;-73
2021/11/08 08:08:08;;;;;;;4.10;3.80;;;;;;;5.68;90.96;98678.91;6304836;22;20015;-72
2021/11/08 08:10:34;;;;;;;2.90;2.70;;;;;;;5.68;90.95;98670.31;6330386;22;20350;-71
2021/11/08 08:13:00;;;;;;;3.47;3.30;;;;;;;5.70;90.99;98671.88;6331800;22;20029;-70
2021/11/08 08:15:26;;;;;;;14.65;4.03;;;;;;;5.68;90.13;98668.56;6330358;22;20513;-73
2021/11/08 08:17:52;;;;;;;3.30;3.00;;;;;;;5.70;90.95;98668.44;6331900;22;20021;-72
2021/11/08 08:20:19;;;;;;;4.22;3.92;;;;;;;5.69;91.25;98665.03;6330750;22;20512;-71
2021/11/08 08:22:45;;;;;;;3.53;3.22;;;;;;;5.72;91.72;98666.63;6330174;22;20737;-73
2021/11/08 08:25:11;;;;;;;0.75;0.75;;;;;;;5.70;91.34;98661.53;6332166;22;20015;-73
2021/11/08 08:27:37;;;;;;;5.75;5.18;;;;;;;5.73;91.07;98666.53;6332030;22;20019;-72
2021/11/08 08:30:05;;;;;;;4.65;3.22;;;;;;;5.70;90.50;98646.00;6333683;22;20044;-73
2021/11/08 08:32:31;;;;;;;8.95;2.95;;;;;;;5.75;90.62;98656.09;6335029;22;20011;-72
2021/11/08 08:34:57;;;;;;;0.77;0.77;;;;;;;5.77;91.10;98643.91;6306140;22;20018;-72
2021/11/08 08:37:24;;;;;;;3.35;3.15;;;;;;;5.80;89.64;98646.31;6332208;22;20069;-72
2021/11/08 08:40:40;;;;;;;2.00;1.90;;;;;;;5.79;89.90;98652.44;6331408;22;20106;-75
2021/11/08 08:43:06;;;;;;;5.03;4.70;;;;;;;5.77;90.75;98634.38;6332080;22;20093;-73
2021/11/08 08:45:32;;;;;;;3.60;3.30;;;;;;;5.82;89.61;98635.91;6330603;22;20109;-74
2021/11/08 08:47:59;;;;;;;5.50;4.03;;;;;;;5.81;90.15;98641.97;6280889;22;20027;-74
2021/11/08 08:50:25;;;;;;;2.55;2.42;;;;;;;5.82;90.58;98641.06;6330563;22;20048;-73
2021/11/08 08:52:51;;;;;;;3.20;2.95;;;;;;;5.80;90.36;98641.13;6331837;22;20023;-73
2021/11/08 08:55:17;;;;;;;2.70;2.60;;;;;;;5.82;90.06;98639.31;6330378;22;20018;-72
2021/11/08 08:57:43;;;;;;;2.97;2.78;;;;;;;5.83;89.94;98646.16;6332412;22;20072;-73
2021/11/08 09:00:11;;;;;;;3.05;2.95;;;;;;;5.81;90.02;98632.47;6333116;22;20025;-74
2021/11/08 09:02:37;;;;;;;2.33;2.20;;;;;;;5.86;89.80;98630.47;6332130;22;20101;-74
2021/11/08 09:05:04;;;;;;;4.47;4.13;;;;;;;5.85;90.20;98631.38;6303974;22;20050;-73
2021/11/08 09:07:30;;;;;;;6.40;5.85;;;;;;;5.83;90.48;98625.44;6331885;22;20098;-75
2021/11/08 09:09:56;;;;;;;1.13;1.13;;;;;;;5.78;90.90;98625.72;6304210;22;20211;-74
2021/11/08 09:12:23;;;;;;;2.53;2.40;;;;;;;5.78;90.96;98617.09;6330001;22;20024;-76
2021/11/08 09:14:50;;;;;;;1.25;1.25;;;;;;;5.78;91.61;98630.03;6331467;22;20038;-73
2021/11/08 09:17:16;;;;;;;2.50;2.40;;;;;;;5.73;92.27;98622.53;6330028;22;20074;-75
2021/11/08 09:19:42;;;;;;;1.48;1.48;;;;;;;5.72;91.37;98627.81;6302637;22;20015;-75
2021/11/08 09:22:12;;;;;;;0.85;0.85;;;;;;;5.70;92.06;98621.84;6330298;22;20080;-74
2021/11/08 09:24:52;;;;;;;3.08;2.88;;;;;;;5.71;92.37;98626.13;6331321;22;20014;-75
2021/11/08 09:27:18;;;;;;;2.53;2.42;;;;;;;5.71;92.38;98628.72;6307670;22;20023;-74
2021/11/08 09:29:45;;;;;;;4.28;3.97;;;;;;;5.73;92.18;98613.91;6326460;22;20085;-72
2021/11/08 09:32:11;;;;;;;3.53;3.33;;;;;;;5.79;91.69;98618.78;6326961;22;20571;-72
2021/11/08 09:34:45;;;;;;;1.60;1.58;;;;;;;5.79;91.37;98617.00;6327427;22;20353;-71
2021/11/08 09:37:14;;;;;;;1.85;1.75;;;;;;;5.79;91.23;98595.47;6327051;22;20023;-73
2021/11/08 09:39:40;;;;;;;3.60;3.30;;;;;;;5.91;90.14;98612.94;6325731;22;20730;-71
2021/11/08 09:42:08;;;;;;;3.88;3.60;;;;;;;5.94;90.08;98614.50;6327134;22;20021;-72
2021/11/08 09:44:35;;;;;;;7.65;3.17;;;;;;;5.95;89.77;98616.19;6325690;22;20019;-72
2021/11/08 09:47:02;;;;;;;3.05;2.85;;;;;;;5.96;90.17;98605.72;6325061;22;20147;-72
2021/11/08 09:49:28;;;;;;;3.42;3.22;;;;;;;6.00;90.09;98604.66;6274535;22;20101;-73
2021/11/08 09:51:54;;;;;;;4.47;4.10;;;;;;;6.06;90.02;98603.47;6326712;22;20023;-74
2021/11/08 09:54:27;;;;;;;1.67;1.67;;;;;;;6.13;89.35;98608.22;6327313;22;20015;-74
2021/11/08 09:56:55;;;;;;;1.85;1.85;;;;;;;6.15;89.47;98608.94;6305155;22;20053;-72
2021/11/08 09:59:21;;;;;;;2.38;2.28;;;;;;;6.18;88.65;98597.59;6275998;22;20042;-72
2021/11/08 10:01:48;;;;;;;1.08;1.08;;;;;;;6.22;89.28;98602.50;6326727;22;20094;-72
2021/11/08 10:04:14;;;;;;;3.50;3.30;;;;;;;6.23;88.88;98596.41;6327272;22;20098;-72
2021/11/08 10:06:41;;;;;;;1.40;1.40;;;;;;;6.25;88.82;98604.06;6301114;22;20010;-72
2021/11/08 10:09:08;;;;;;;2.00;1.85;;;;;;;6.23;89.38;98588.63;6328568;22;20045;-74
2021/11/08 10:11:36;;;;;;;4.55;4.25;;;;;;;6.31;87.93;98583.03;6328467;22;20516;-72
2021/11/08 10:14:04;;;;;;;2.30;2.17;;;;;;;6.32;87.52;98582.06;6275602;22;20056;-75
2021/11/08 10:16:32;;;;;;;1.95;1.85;;;;;;;6.33;88.00;98575.97;6301182;22;20019;-71
2021/11/08 10:19:00;;;;;;;4.90;4.43;;;;;;;6.38;87.64;98578.31;6328553;22;20096;-71
2021/11/08 10:21:31;;;;;;;3.25;2.75;;;;;;;6.37;87.33;98577.47;6328697;22;20121;-72
2021/11/08 10:23:59;;;;;;;2.70;2.58;;;;;;;6.38;87.75;98567.94;6329422;22;20021;-72
2021/11/08 10:26:27;;;;;;;2.03;1.92;;;;;;;6.38;87.39;98567.94;6302115;22;20085;-74
2021/11/08 10:28:55;;;;;;;1.88;1.88;;;;;;;6.39;87.18;98572.19;6300768;22;20022;-75
2021/11/08 10:31:25;;;;;;;1.75;1.58;;;;;;;6.38;87.71;98557.56;6327430;22;20073;-73
2021/11/08 10:34:42;;;;;;;2.80;2.60;;;;;;;6.39;87.03;98569.59;6326796;22;20014;-73
2021/11/08 10:37:09;;;;;;;1.23;1.23;;;;;;;6.44;86.59;98563.22;6297925;22;20073;-72
2021/11/08 10:39:35;;;;;;;4.88;4.47;;;;;;;6.45;86.81;98556.28;6323668;22;20545;-73
2021/11/08 10:42:04;;;;;;;3.47;3.28;;;;;;;6.46;87.03;98548.41;6325550;22;20088;-74
2021/11/08 10:44:30;;;;;;;2.35;2.25;;;;;;;6.48;87.14;98554.31;6326398;22;20109;-74
2021/11/08 10:46:58;;;;;;;2.58;2.38;;;;;;;6.50;86.64;98551.66;6324125;22;20015;-74
2021/11/08 10:49:27;;;;;;;4.53;4.13;;;;;;;6.49;85.93;98534.44;6328681;22;20048;-74
2021/11/08 10:52:00;;;;;;;4.30;4.00;;;;;;;6.49;86.41;98540.47;6301021;22;20019;-74
2021/11/08 10:54:29;;;;;;;1.42;1.42;;;;;;;6.51;86.51;98548.16;6327245;22;20508;-73
2021/11/08 10:57:05;;;;;;;3.10;2.90;;;;;;;6.51;86.60;98543.78;6325988;22;20049;-73
2021/11/08 10:59:34;;;;;;;5.90;5.18;;;;;;;6.48;86.40;98553.53;6326646;22;20033;-74
2021/11/08 11:02:02;;;;;;;4.47;4.18;;;;;;;6.43;86.81;98540.81;6300115;22;20074;-73
2021/11/08 11:04:46;;;;;;;3.60;3.40;;;;;;;6.43;86.45;98514.91;6301192;22;20014;-74
2021/11/08 11:07:13;;;;;;;1.60;1.52;;;;;;;6.49;85.74;98540.47;6327821;22;20069;-74
2021/11/08 11:09:39;;;;;;;3.00;2.80;;;;;;;6.47;86.77;98531.13;6328389;22;20010;-75
2021/11/08 11:12:08;;;;;;;7.40;5.72;;;;;;;6.42;87.08;98539.16;6328067;22;21045;-74
2021/11/08 11:14:41;;;;;;;3.22;2.85;;;;;;;6.44;86.51;98529.53;6328731;22;20153;-73
2021/11/08 11:17:09;;;;;;;4.57;4.28;;;;;;;6.39;86.67;98522.94;6326089;22;20076;-74
2021/11/08 11:19:36;;;;;;;2.80;2.70;;;;;;;6.43;86.96;98535.63;6301070;22;20015;-74
2021/11/08 11:22:05;;;;;;;3.85;3.40;;;;;;;6.40;86.79;98540.16;6326154;22;20014;-74
2021/11/08 11:24:47;;;;;;;1.13;1.13;;;;;;;6.40;86.93;98529.81;6301751;22;20050;-74
2021/11/08 11:27:28;;;;;;;4.25;3.85;;;;;;;6.39;86.87;98538.50;6326773;22;20096;-74
2021/11/08 11:30:14;;;;;;;3.35;3.10;;;;;;;6.40;86.12;98525.47;6328539;22;20022;-73
2021/11/08 11:32:41;;;;;;;2.53;2.33;;;;;;;6.47;86.58;98525.94;6328533;22;20065;-74
2021/11/08 11:35:11;;;;;;;1.52;1.48;;;;;;;6.51;86.82;98525.63;6300333;22;20045;-74
2021/11/08 11:37:37;;;;;;;2.15;2.05;;;;;;;6.52;86.22;98521.28;6328519;22;20365;-74
2021/11/08 11:40:11;;;;;;;5.43;4.93;;;;;;;6.44;86.88;98515.75;6328063;22;20098;-75
2021/11/08 11:42:55;;;;;;;3.20;3.00;;;;;;;6.40;86.05;98509.91;6301645;22;20486;-74
2021/11/08 11:45:21;;;;;;;3.05;2.95;;;;;;;6.43;85.89;98520.09;6303083;22;20583;-74
2021/11/08 11:48:01;;;;;;;3.67;3.33;;;;;;;6.42;86.47;98514.97;6326222;22;20508;-74
2021/11/08 11:50:28;;;;;;;3.08;2.85;;;;;;;6.44;86.94;98515.75;6328564;22;20019;-74
2021/11/08 11:52:54;;;;;;;6.65;4.45;;;;;;;6.41;86.77;98515.94;6327447;22;20010;-74
2021/11/08 11:55:20;;;;;;;2.05;1.67;;;;;;;6.42;86.64;98513.22;6324840;22;20379;-74
2021/11/08 11:57:47;;;;;;;3.50;3.22;;;;;;;6.42;86.75;98513.22;6323988;22;20528;-74
2021/11/08 12:00:14;;;;;;;5.80;4.82;;;;;;;6.43;86.31;98507.13;6322357;22;20525;-74
2021/11/08 12:02:40;;;;;;;3.85;3.55;;;;;;;6.49;86.76;98514.53;6322023;22;20010;-74
2021/11/08 12:05:06;;;;;;;1.92;1.85;;;;;;;6.49;86.31;98509.34;6324873;22;20023;-73
2021/11/08 12:07:32;;;;;;;3.42;3.22;;;;;;;6.49;86.08;98513.69;6327210;22;20014;-74
2021/11/08 12:10:00;;;;;;;2.47;2.30;;;;;;;6.51;86.47;98514.47;6324692;22;20018;-73
2021/11/08 12:12:26;;;;;;;4.45;4.13;;;;;;;6.48;85.72;98512.06;6323401;22;20019;-75
2021/11/08 12:15:09;;;;;;;3.47;3.05;;;;;;;6.52;85.52;98518.69;6323740;22;20018;-74
2021/11/08 12:17:46;;;;;;;3.03;2.85;;;;;;;6.53;85.53;98515.19;6321506;22;20085;-73
2021/11/08 12:20:15;;;;;;;1.02;1.02;;;;;;;6.48;85.98;98509.47;6322373;22;20350;-75
2021/11/08 12:22:41;;;;;;;3.13;2.97;;;;;;;6.51;86.50;98524.81;6301527;22;20022;-77
2021/11/08 12:25:13;;;;;;;2.67;2.58;;;;;;;6.47;85.67;98513.81;6327178;22;20021;-75
2021/11/08 12:27:50;;;;;;;2.22;2.13;;;;;;;6.54;85.90;98516.88;6326802;22;20015;-75
2021/11/08 12:30:31;;;;;;;1.77;1.70;;;;;;;6.56;85.73;98517.59;6327555;22;20019;-75
2021/11/08 12:33:00;;;;;;;3.05;2.83;;;;;;;6.53;85.63;98516.03;6303933;22;20320;-74
2021/11/08 12:35:38;;;;;;;1.60;1.60;;;;;;;6.54;85.79;98501.31;6276172;22;20418;-74
2021/11/08 12:38:22;;;;;;;2.53;2.33;;;;;;;6.57;85.56;98509.75;6300750;22;20084;-74
2021/11/08 12:41:03;;;;;;;2.55;2.33;;;;;;;6.57;85.44;98517.50;6254939;22;20021;-74
2021/11/08 12:43:31;;;;;;;1.33;1.33;;;;;;;6.55;85.57;98518.50;6275399;22;20019;-75
2021/11/08 12:46:17;;;;;;;3.83;3.40;;;;;;;6.52;85.42;98503.97;6325104;22;20019;-72
2021/11/08 12:48:43;;;;;;;2.28;2.17;;;;;;;6.52;85.89;98510.91;6326871;22;20019;-75
2021/11/08 12:51:10;;;;;;;3.78;3.25;;;;;;;6.49;85.61;98505.91;6298439;22;20100;-74
2021/11/08 12:53:40;;;;;;;2.95;2.72;;;;;;;6.45;86.50;98513.03;6324342;22;20019;-74
2021/11/08 12:56:23;;;;;;;2.85;2.05;;;;;;;6.39;87.39;98512.56;6324313;22;20023;-75
2021/11/08 12:58:57;;;;;;;3.67;2.20;;;;;;;6.33;87.84;98518.13;6298870;22;20015;-74
2021/11/08 13:01:35;;;;;;;6.20;2.60;;;;;;;6.24;88.72;98520.34;6326222;22;20015;-74
2021/11/08 13:04:06;;;;;;;1.52;1.52;;;;;;;6.23;89.05;98529.03;6301199;22;20118;-75
2021/11/08 13:06:34;;;;;;;2.00;1.90;;;;;;;6.27;88.32;98521.91;6324642;22;20019;-75
2021/11/08 13:09:19;;;;;;;4.00;3.72;;;;;;;6.23;89.36;98536.81;6325460;22;20041;-74
2021/11/08 13:11:57;;;;;;;3.60;3.35;;;;;;;6.22;89.36;98527.34;6325712;22;20018;-74
2021/11/08 13:14:34;;;;;;;2.25;2.15;;;;;;;6.20;89.93;98531.81;6298719;22;20676;-73
2021/11/08 13:17:10;;;;;;;3.50;3.38;;;;;;;6.16;90.26;98524.28;6326068;22;20073;-73
2021/11/08 13:19:44;;;;;;;2.22;2.13;;;;;;;6.14;90.48;98527.00;6325996;22;20026;-73
2021/11/08 13:22:32;;;;;;;23.20;3.50;;;;;;;6.07;91.03;98527.44;6330530;22;20744;-74
2021/11/08 13:25:01;;;;;;;2.58;2.40;;;;;;;6.07;91.39;98537.78;6327678;22;20083;-76